Time;durP1;ratioP1;P1;durP2;ratioP2;P2;SDS_P1;SDS_P2;PMS_P1;PMS_P2;Temp;Humidity;BMP_temperature;BMP_pressure;BME280_temperature;BME280_humidity;BME280_pressure;Samples;Min_cycle;Max_cycle;Signal;HPM_P1;HPM_P2
2023/05/07 00:00:42;;;;;;;10.50;9.40;;;;;;;;;;5038120;28;20228;-51
2023/05/07 00:03:08;;;;;;;10.57;9.47;;;;;;;;;;5040374;28;20224;-51
2023/05/07 00:05:35;;;;;;;14.87;10.53;;;;;;;;;;5040503;28;20281;-51
2023/05/07 00:08:02;;;;;;;11.57;8.83;;;;;;;;;;5035395;28;20286;-52
2023/05/07 00:10:29;;;;;;;11.53;9.87;;;;;;;;;;5045001;28;20232;-52
2023/05/07 00:12:57;;;;;;;11.63;10.40;;;;;;;;;;5045131;28;20236;-53
2023/05/07 00:15:23;;;;;;;10.13;9.23;;;;;;;;;;5044773;28;20852;-50
2023/05/07 00:17:50;;;;;;;12.70;9.67;;;;;;;;;;5044112;28;20235;-51
2023/05/07 00:20:16;;;;;;;9.93;8.90;;;;;;;;;;5043714;28;20317;-52
2023/05/07 00:22:43;;;;;;;11.03;9.80;;;;;;;;;;5044387;28;20240;-52
2023/05/07 00:25:10;;;;;;;10.80;9.80;;;;;;;;;;5045142;28;20241;-53
2023/05/07 00:27:36;;;;;;;9.93;9.03;;;;;;;;;;5049245;28;20286;-51
2023/05/07 00:30:06;;;;;;;10.33;9.33;;;;;;;;;;5043363;28;20231;-51
2023/05/07 00:32:32;;;;;;;10.03;9.03;;;;;;;;;;5037813;28;21886;-51
2023/05/07 00:34:59;;;;;;;14.53;9.53;;;;;;;;;;5037956;28;20241;-51
2023/05/07 00:37:25;;;;;;;11.53;9.10;;;;;;;;;;5041687;28;20311;-52
2023/05/07 00:39:52;;;;;;;9.10;8.27;;;;;;;;;;5041916;28;20255;-50
2023/05/07 00:42:19;;;;;;;9.30;8.40;;;;;;;;;;5039568;28;20711;-52
2023/05/07 00:44:48;;;;;;;8.83;8.03;;;;;;;;;;5035961;28;20234;-51
2023/05/07 00:47:17;;;;;;;10.07;9.17;;;;;;;;;;5041956;28;20638;-51
2023/05/07 00:49:45;;;;;;;9.57;8.73;;;;;;;;;;5040650;28;20654;-51
2023/05/07 00:52:12;;;;;;;8.23;7.43;;;;;;;;;;5039469;28;20254;-52
2023/05/07 00:54:39;;;;;;;8.73;7.87;;;;;;;;;;5036843;28;20777;-51
2023/05/07 00:57:06;;;;;;;8.60;7.50;;;;;;;;;;5038291;28;20315;-50
2023/05/07 00:59:33;;;;;;;10.10;6.97;;;;;;;;;;5040320;28;20227;-51
2023/05/07 01:01:59;;;;;;;10.53;8.87;;;;;;;;;;5033464;28;20649;-51
2023/05/07 01:04:28;;;;;;;8.77;7.77;;;;;;;;;;5038999;28;20235;-51
2023/05/07 01:06:56;;;;;;;8.53;7.73;;;;;;;;;;5021044;28;20231;-50
2023/05/07 01:09:23;;;;;;;9.67;8.73;;;;;;;;;;5039130;28;20409;-52
2023/05/07 01:11:51;;;;;;;8.77;7.97;;;;;;;;;;5040621;28;20235;-51
2023/05/07 01:14:18;;;;;;;10.83;8.03;;;;;;;;;;5039671;28;20250;-52
2023/05/07 01:16:46;;;;;;;10.17;8.70;;;;;;;;;;5040929;28;20232;-52
2023/05/07 01:19:14;;;;;;;9.70;8.80;;;;;;;;;;5040239;28;20926;-51
2023/05/07 01:21:44;;;;;;;10.20;9.20;;;;;;;;;;5042049;28;20239;-51
2023/05/07 01:24:13;;;;;;;9.80;8.43;;;;;;;;;;5040989;28;20863;-51
2023/05/07 01:26:40;;;;;;;8.80;7.83;;;;;;;;;;5045597;28;20303;-51
2023/05/07 01:29:06;;;;;;;9.50;8.50;;;;;;;;;;5043943;28;20236;-52
2023/05/07 01:31:33;;;;;;;8.23;7.50;;;;;;;;;;5042140;28;20303;-51
2023/05/07 01:34:00;;;;;;;8.73;7.93;;;;;;;;;;5045741;28;20764;-52
2023/05/07 01:36:27;;;;;;;12.33;9.00;;;;;;;;;;5044990;28;20840;-52
2023/05/07 01:38:53;;;;;;;8.50;7.70;;;;;;;;;;5045247;28;20251;-52
2023/05/07 01:41:21;;;;;;;8.00;7.30;;;;;;;;;;5043144;28;20235;-51
2023/05/07 01:43:48;;;;;;;9.00;8.10;;;;;;;;;;5044976;28;20236;-52
2023/05/07 01:46:16;;;;;;;8.90;8.17;;;;;;;;;;5042244;28;20799;-58
2023/05/07 01:48:45;;;;;;;8.60;7.90;;;;;;;;;;5032264;28;20235;-51
2023/05/07 01:51:12;;;;;;;9.03;8.13;;;;;;;;;;5031638;28;20314;-51
2023/05/07 01:53:38;;;;;;;11.30;8.20;;;;;;;;;;5051670;28;20609;-50
2023/05/07 01:56:05;;;;;;;8.93;7.87;;;;;;;;;;5048421;28;20259;-51
2023/05/07 01:58:34;;;;;;;8.40;7.53;;;;;;;;;;5049348;28;20243;-51
2023/05/07 02:01:00;;;;;;;8.60;7.63;;;;;;;;;;5046564;28;20613;-58
2023/05/07 02:03:27;;;;;;;8.30;7.50;;;;;;;;;;5048722;28;20239;-52
2023/05/07 02:05:53;;;;;;;9.57;8.60;;;;;;;;;;5046567;28;20925;-52
2023/05/07 02:08:20;;;;;;;9.63;7.83;;;;;;;;;;5047059;28;20730;-51
2023/05/07 02:10:46;;;;;;;9.57;8.10;;;;;;;;;;5045943;28;20659;-52
2023/05/07 02:13:13;;;;;;;8.53;7.73;;;;;;;;;;5046261;28;20755;-52
2023/05/07 02:15:41;;;;;;;8.57;7.77;;;;;;;;;;5045878;28;20239;-49
2023/05/07 02:18:08;;;;;;;8.73;7.93;;;;;;;;;;5045860;28;20656;-51
2023/05/07 02:20:35;;;;;;;11.60;9.47;;;;;;;;;;5045899;28;20238;-50
2023/05/07 02:23:01;;;;;;;10.63;9.63;;;;;;;;;;5040451;28;20347;-52
2023/05/07 02:25:29;;;;;;;11.40;9.70;;;;;;;;;;5025971;28;20233;-51
2023/05/07 02:27:55;;;;;;;10.50;9.43;;;;;;;;;;5026817;28;20237;-51
2023/05/07 02:30:22;;;;;;;11.10;9.27;;;;;;;;;;5026222;28;20291;-49
2023/05/07 02:32:50;;;;;;;12.80;9.97;;;;;;;;;;5028108;28;20895;-51
2023/05/07 02:35:16;;;;;;;11.27;9.70;;;;;;;;;;5044442;28;20223;-52
2023/05/07 02:37:43;;;;;;;9.80;8.93;;;;;;;;;;5033644;28;20246;-52
2023/05/07 02:40:10;;;;;;;11.40;9.57;;;;;;;;;;5041494;28;20236;-51
2023/05/07 02:42:37;;;;;;;10.17;9.27;;;;;;;;;;5038692;28;20240;-51
2023/05/07 02:45:04;;;;;;;11.50;9.37;;;;;;;;;;5041983;28;20315;-53
2023/05/07 02:47:31;;;;;;;10.90;9.80;;;;;;;;;;5040487;28;20227;-52
2023/05/07 02:49:59;;;;;;;9.37;8.47;;;;;;;;;;5042790;28;20232;-51
2023/05/07 02:52:25;;;;;;;11.90;9.53;;;;;;;;;;5042404;28;20240;-52
2023/05/07 02:54:52;;;;;;;9.90;9.00;;;;;;;;;;5044035;28;20874;-50
2023/05/07 02:57:18;;;;;;;10.27;8.67;;;;;;;;;;5042065;28;20244;-52
2023/05/07 02:59:45;;;;;;;9.83;8.47;;;;;;;;;;5037324;28;20307;-51
2023/05/07 03:02:11;;;;;;;8.90;8.00;;;;;;;;;;5040698;28;20257;-51
2023/05/07 03:04:38;;;;;;;8.57;7.67;;;;;;;;;;5043630;28;20238;-51
2023/05/07 03:07:06;;;;;;;10.70;9.40;;;;;;;;;;5042668;28;20239;-52
2023/05/07 03:09:33;;;;;;;9.57;8.17;;;;;;;;;;5042712;28;20243;-51
2023/05/07 03:11:59;;;;;;;8.30;7.40;;;;;;;;;;5040167;28;20357;-51
2023/05/07 03:14:26;;;;;;;10.60;8.67;;;;;;;;;;5043845;28;20223;-52
2023/05/07 03:16:53;;;;;;;8.70;7.90;;;;;;;;;;5043058;28;20314;-52
2023/05/07 03:19:20;;;;;;;9.87;8.23;;;;;;;;;;5043060;28;20235;-51
2023/05/07 03:21:46;;;;;;;10.83;8.97;;;;;;;;;;5041790;28;20232;-54
2023/05/07 03:24:14;;;;;;;8.23;7.43;;;;;;;;;;5043377;28;20342;-52
2023/05/07 03:26:41;;;;;;;10.33;8.47;;;;;;;;;;5043427;28;20289;-53
2023/05/07 03:29:07;;;;;;;9.40;8.50;;;;;;;;;;5045595;28;20718;-51
2023/05/07 03:31:34;;;;;;;8.27;7.33;;;;;;;;;;5032061;28;22262;-51
2023/05/07 03:34:01;;;;;;;10.17;7.67;;;;;;;;;;5024086;28;20251;-51
2023/05/07 03:36:28;;;;;;;10.93;7.53;;;;;;;;;;5032933;28;20746;-52
2023/05/07 03:38:54;;;;;;;8.30;7.50;;;;;;;;;;5039691;28;20766;-52
2023/05/07 03:41:22;;;;;;;8.60;7.80;;;;;;;;;;5040335;28;20228;-51
2023/05/07 03:43:49;;;;;;;8.63;7.20;;;;;;;;;;5041259;28;20249;-55
2023/05/07 03:46:16;;;;;;;9.20;8.03;;;;;;;;;;5044977;28;20277;-52
2023/05/07 03:48:42;;;;;;;8.03;7.23;;;;;;;;;;5039575;28;20234;-52
2023/05/07 03:51:09;;;;;;;9.17;8.00;;;;;;;;;;5043213;28;20243;-51
2023/05/07 03:53:36;;;;;;;10.87;7.80;;;;;;;;;;5038741;28;20231;-50
2023/05/07 03:56:02;;;;;;;9.97;7.97;;;;;;;;;;5043221;28;20234;-51
2023/05/07 03:58:31;;;;;;;9.87;8.70;;;;;;;;;;5042342;28;20235;-51
2023/05/07 04:00:57;;;;;;;9.60;8.60;;;;;;;;;;5043049;28;20244;-51
2023/05/07 04:03:25;;;;;;;9.00;8.17;;;;;;;;;;5039289;28;20259;-50
2023/05/07 04:05:51;;;;;;;10.37;9.00;;;;;;;;;;5041117;28;20771;-52
2023/05/07 04:08:18;;;;;;;9.07;8.17;;;;;;;;;;5041550;28;20227;-51
2023/05/07 04:10:44;;;;;;;7.80;6.97;;;;;;;;;;5041294;28;20303;-51
2023/05/07 04:13:11;;;;;;;9.23;8.43;;;;;;;;;;5040646;28;20236;-53
2023/05/07 04:15:39;;;;;;;8.67;7.77;;;;;;;;;;5041507;28;20228;-52
2023/05/07 04:18:06;;;;;;;8.73;7.67;;;;;;;;;;5042186;28;20236;-51
2023/05/07 04:20:36;;;;;;;9.40;7.23;;;;;;;;;;5041223;28;20227;-52
2023/05/07 04:23:02;;;;;;;9.37;8.33;;;;;;;;;;5042789;28;20326;-53
2023/05/07 04:25:29;;;;;;;8.13;7.37;;;;;;;;;;5044447;28;21034;-52
2023/05/07 04:27:55;;;;;;;8.87;8.03;;;;;;;;;;5035982;28;20235;-53
2023/05/07 04:30:22;;;;;;;9.13;8.27;;;;;;;;;;5044595;28;20236;-53
2023/05/07 04:32:50;;;;;;;8.90;8.10;;;;;;;;;;5044277;28;20330;-57
2023/05/07 04:35:17;;;;;;;9.73;7.67;;;;;;;;;;5038258;28;20297;-52
2023/05/07 04:37:43;;;;;;;8.33;7.53;;;;;;;;;;5042439;28;20232;-51
2023/05/07 04:40:10;;;;;;;8.07;7.40;;;;;;;;;;5043346;28;20228;-51
2023/05/07 04:42:37;;;;;;;8.70;7.90;;;;;;;;;;5044003;28;20243;-51
2023/05/07 04:45:04;;;;;;;8.07;7.27;;;;;;;;;;5041816;28;20305;-53
2023/05/07 04:47:31;;;;;;;8.40;7.47;;;;;;;;;;5042606;28;20788;-51
2023/05/07 04:50:00;;;;;;;7.83;7.10;;;;;;;;;;5041713;28;20341;-52
2023/05/07 04:52:26;;;;;;;7.90;7.17;;;;;;;;;;5041174;28;20707;-52
2023/05/07 04:54:53;;;;;;;8.27;7.10;;;;;;;;;;5021875;28;20283;-51
2023/05/07 04:57:19;;;;;;;7.93;6.87;;;;;;;;;;5039506;28;20238;-51
2023/05/07 04:59:46;;;;;;;8.83;6.63;;;;;;;;;;5044735;28;20705;-52
2023/05/07 05:02:12;;;;;;;6.90;6.30;;;;;;;;;;5046764;28;20235;-52
2023/05/07 05:04:39;;;;;;;8.37;6.83;;;;;;;;;;5038062;28;20323;-52
2023/05/07 05:07:07;;;;;;;7.37;6.67;;;;;;;;;;5044750;28;20334;-51
2023/05/07 05:09:34;;;;;;;6.60;6.00;;;;;;;;;;5036642;28;20236;-52
2023/05/07 05:12:00;;;;;;;7.00;6.40;;;;;;;;;;5045632;28;20643;-51
2023/05/07 05:14:27;;;;;;;7.10;6.40;;;;;;;;;;5046099;28;20534;-51
2023/05/07 05:16:53;;;;;;;7.90;6.40;;;;;;;;;;5045229;28;20232;-50
2023/05/07 05:19:20;;;;;;;6.23;5.73;;;;;;;;;;5044268;28;20248;-51
2023/05/07 05:21:46;;;;;;;6.43;5.83;;;;;;;;;;5045439;28;20703;-52
2023/05/07 05:24:15;;;;;;;7.33;6.47;;;;;;;;;;5044533;28;20220;-51
2023/05/07 05:26:41;;;;;;;6.00;5.40;;;;;;;;;;5040544;28;20235;-52
2023/05/07 05:29:08;;;;;;;6.90;6.20;;;;;;;;;;5044915;28;20323;-51
2023/05/07 05:31:35;;;;;;;6.70;5.67;;;;;;;;;;5042018;28;20223;-51
2023/05/07 05:34:01;;;;;;;5.90;5.33;;;;;;;;;;5042696;28;20235;-52
2023/05/07 05:36:28;;;;;;;6.90;6.20;;;;;;;;;;5034281;28;20238;-50
2023/05/07 05:38:56;;;;;;;8.93;5.27;;;;;;;;;;5049207;28;20236;-52
2023/05/07 05:41:24;;;;;;;6.63;6.03;;;;;;;;;;5044958;28;20243;-51
2023/05/07 05:43:51;;;;;;;6.97;6.27;;;;;;;;;;5047542;28;20310;-51
2023/05/07 05:46:17;;;;;;;6.23;5.43;;;;;;;;;;5039704;28;20228;-51
2023/05/07 05:48:44;;;;;;;6.33;5.73;;;;;;;;;;5044998;28;20235;-52
2023/05/07 05:51:10;;;;;;;5.50;5.03;;;;;;;;;;5044094;28;20321;-51
2023/05/07 05:53:37;;;;;;;7.57;6.23;;;;;;;;;;5045106;28;20774;-51
2023/05/07 05:56:04;;;;;;;6.63;6.03;;;;;;;;;;5044671;28;20973;-52
2023/05/07 05:58:32;;;;;;;6.83;6.17;;;;;;;;;;5041872;28;20232;-50
2023/05/07 06:00:59;;;;;;;6.80;5.73;;;;;;;;;;5043142;28;20240;-52
2023/05/07 06:03:25;;;;;;;6.53;5.93;;;;;;;;;;5042840;28;20590;-52
2023/05/07 06:05:52;;;;;;;6.67;6.07;;;;;;;;;;5045317;28;20239;-52
2023/05/07 06:08:19;;;;;;;7.03;5.63;;;;;;;;;;5043241;28;20228;-52
2023/05/07 06:10:46;;;;;;;9.50;7.03;;;;;;;;;;5043295;28;20887;-51
2023/05/07 06:13:12;;;;;;;6.63;5.97;;;;;;;;;;5042803;28;20293;-51
2023/05/07 06:15:40;;;;;;;6.53;5.70;;;;;;;;;;5042291;28;20231;-51
2023/05/07 06:18:07;;;;;;;7.13;6.43;;;;;;;;;;5043277;28;20566;-51
2023/05/07 06:20:33;;;;;;;7.60;6.80;;;;;;;;;;5043575;28;20244;-50
2023/05/07 06:23:00;;;;;;;7.83;6.07;;;;;;;;;;5043786;28;20232;-51
2023/05/07 06:25:26;;;;;;;10.47;5.40;;;;;;;;;;5042555;28;20224;-52
2023/05/07 06:27:53;;;;;;;8.50;6.70;;;;;;;;;;5039851;28;20236;-51
2023/05/07 06:30:20;;;;;;;6.43;5.77;;;;;;;;;;5041450;28;20755;-52
2023/05/07 06:32:48;;;;;;;6.40;5.90;;;;;;;;;;5041469;28;20264;-52
2023/05/07 06:35:14;;;;;;;7.00;6.20;;;;;;;;;;5043224;28;20247;-50
2023/05/07 06:37:42;;;;;;;6.47;5.63;;;;;;;;;;5043718;28;20233;-52
2023/05/07 06:40:09;;;;;;;6.87;6.27;;;;;;;;;;5042890;28;20330;-50
2023/05/07 06:42:36;;;;;;;8.23;6.67;;;;;;;;;;5043560;28;20236;-51
2023/05/07 06:45:03;;;;;;;6.63;6.10;;;;;;;;;;5043748;28;20610;-52
2023/05/07 06:47:30;;;;;;;7.20;6.50;;;;;;;;;;5029289;28;20298;-51
2023/05/07 06:49:58;;;;;;;7.03;5.93;;;;;;;;;;5024001;28;20290;-51
2023/05/07 06:52:24;;;;;;;7.27;6.57;;;;;;;;;;5036665;28;20235;-51
2023/05/07 06:54:51;;;;;;;7.13;6.43;;;;;;;;;;5040505;28;20237;-52
2023/05/07 06:57:18;;;;;;;6.00;5.50;;;;;;;;;;5041892;28;20652;-52
2023/05/07 06:59:44;;;;;;;8.60;5.60;;;;;;;;;;5042692;28;20236;-51
2023/05/07 07:02:11;;;;;;;7.03;6.33;;;;;;;;;;5042642;28;20352;-51
2023/05/07 07:04:37;;;;;;;6.50;5.60;;;;;;;;;;5046318;28;20652;-52
2023/05/07 07:07:05;;;;;;;5.87;5.10;;;;;;;;;;5046181;28;20227;-52
2023/05/07 07:09:32;;;;;;;6.07;5.47;;;;;;;;;;5047957;28;20237;-51
2023/05/07 07:11:58;;;;;;;6.13;5.57;;;;;;;;;;5043359;28;20666;-52
2023/05/07 07:14:25;;;;;;;6.23;5.47;;;;;;;;;;5042444;28;20259;-51
2023/05/07 07:16:51;;;;;;;5.60;5.03;;;;;;;;;;5034620;28;20774;-51
2023/05/07 07:19:20;;;;;;;6.27;4.97;;;;;;;;;;5031832;28;20836;-52
2023/05/07 07:21:46;;;;;;;6.43;5.13;;;;;;;;;;5034763;28;20236;-51
2023/05/07 07:24:18;;;;;;;6.40;5.10;;;;;;;;;;5035248;28;20634;-51
2023/05/07 07:26:45;;;;;;;5.23;4.80;;;;;;;;;;5035714;28;20228;-52
2023/05/07 07:29:12;;;;;;;5.67;5.17;;;;;;;;;;5030765;28;20241;-52
2023/05/07 07:31:38;;;;;;;6.37;4.47;;;;;;;;;;5039176;28;20247;-51
2023/05/07 07:34:05;;;;;;;6.57;5.07;;;;;;;;;;5044048;28;20232;-51
2023/05/07 07:36:33;;;;;;;5.10;4.70;;;;;;;;;;5043315;28;20234;-52
2023/05/07 07:38:59;;;;;;;4.80;4.40;;;;;;;;;;5044628;28;20243;-52
2023/05/07 07:41:28;;;;;;;5.30;4.90;;;;;;;;;;5039684;28;20235;-51
2023/05/07 07:43:54;;;;;;;5.05;4.43;;;;;;;;;;5043656;28;20232;-51
2023/05/07 07:46:21;;;;;;;6.10;4.30;;;;;;;;;;5041546;28;20236;-50
2023/05/07 07:48:47;;;;;;;4.30;3.93;;;;;;;;;;5043914;28;20227;-51
2023/05/07 07:51:14;;;;;;;4.17;3.77;;;;;;;;;;5044742;28;20277;-51
2023/05/07 07:53:40;;;;;;;4.23;3.83;;;;;;;;;;5045313;28;20239;-49
2023/05/07 07:56:07;;;;;;;4.20;3.80;;;;;;;;;;5041495;28;20224;-50
2023/05/07 07:58:37;;;;;;;5.07;3.90;;;;;;;;;;5038365;28;20231;-53
2023/05/07 08:01:04;;;;;;;4.43;4.03;;;;;;;;;;5044309;28;20694;-50
2023/05/07 08:03:32;;;;;;;4.55;4.15;;;;;;;;;;5038988;28;20243;-51
2023/05/07 08:05:58;;;;;;;4.05;3.65;;;;;;;;;;5042338;28;20282;-51
2023/05/07 08:08:25;;;;;;;4.07;3.72;;;;;;;;;;5028444;28;20298;-50
2023/05/07 08:10:51;;;;;;;3.80;3.45;;;;;;;;;;5040720;28;20984;-51
2023/05/07 08:13:18;;;;;;;4.43;3.58;;;;;;;;;;5041947;28;20235;-52
2023/05/07 08:15:46;;;;;;;4.18;3.80;;;;;;;;;;5044016;28;20238;-50
2023/05/07 08:18:13;;;;;;;5.07;3.92;;;;;;;;;;5044153;28;20239;-51
2023/05/07 08:20:39;;;;;;;3.45;3.10;;;;;;;;;;5041066;28;20611;-50
2023/05/07 08:23:06;;;;;;;3.42;3.20;;;;;;;;;;5035202;28;20236;-51
2023/05/07 08:25:33;;;;;;;3.75;3.40;;;;;;;;;;5042459;28;20604;-50
2023/05/07 08:28:00;;;;;;;4.45;3.78;;;;;;;;;;5041206;28;20227;-50
2023/05/07 08:30:27;;;;;;;5.72;3.17;;;;;;;;;;5041974;28;20234;-52
2023/05/07 08:32:55;;;;;;;3.20;2.90;;;;;;;;;;5039095;28;20752;-51
2023/05/07 08:35:21;;;;;;;3.22;2.92;;;;;;;;;;5041794;28;20456;-52
2023/05/07 08:37:48;;;;;;;2.88;2.58;;;;;;;;;;5041336;28;20240;-50
2023/05/07 08:40:15;;;;;;;3.55;3.25;;;;;;;;;;5039522;28;20308;-52
2023/05/07 08:42:42;;;;;;;3.45;3.15;;;;;;;;;;5041133;28;20754;-52
2023/05/07 08:45:10;;;;;;;3.40;3.03;;;;;;;;;;5044074;28;20232;-53
2023/05/07 08:47:41;;;;;;;2.88;2.65;;;;;;;;;;5040007;28;20248;-50
2023/05/07 08:50:09;;;;;;;3.15;2.70;;;;;;;;;;5044635;28;20236;-52
2023/05/07 08:52:36;;;;;;;3.30;3.10;;;;;;;;;;5043729;28;20328;-50
2023/05/07 08:55:03;;;;;;;3.05;2.80;;;;;;;;;;5054295;28;20238;-51
2023/05/07 08:57:30;;;;;;;5.00;2.95;;;;;;;;;;5054184;28;20228;-49
2023/05/07 08:59:57;;;;;;;2.83;2.53;;;;;;;;;;5054118;28;20232;-54
2023/05/07 09:02:23;;;;;;;2.78;2.58;;;;;;;;;;5044892;28;20264;-50
2023/05/07 09:04:50;;;;;;;3.65;3.00;;;;;;;;;;5045077;28;20235;-52
2023/05/07 09:07:19;;;;;;;3.00;2.70;;;;;;;;;;5044170;28;20918;-52
2023/05/07 09:09:45;;;;;;;4.18;2.67;;;;;;;;;;5045849;28;20290;-53
2023/05/07 09:12:12;;;;;;;2.95;2.75;;;;;;;;;;5049137;28;20232;-58
2023/05/07 09:14:38;;;;;;;3.08;2.67;;;;;;;;;;5048603;28;20526;-51
2023/05/07 09:17:05;;;;;;;3.75;2.70;;;;;;;;;;5044343;28;20270;-51
2023/05/07 09:19:31;;;;;;;3.95;2.83;;;;;;;;;;5015262;28;20256;-52
2023/05/07 09:22:01;;;;;;;2.80;2.60;;;;;;;;;;5025686;28;20236;-52
2023/05/07 09:24:33;;;;;;;2.90;2.70;;;;;;;;;;5037492;28;20232;-53
2023/05/07 09:27:01;;;;;;;3.47;3.00;;;;;;;;;;5042187;28;20228;-52
2023/05/07 09:29:28;;;;;;;3.20;2.97;;;;;;;;;;5042293;28;20228;-52
2023/05/07 09:31:55;;;;;;;3.75;3.17;;;;;;;;;;5041497;28;20297;-52
2023/05/07 09:34:22;;;;;;;3.70;3.10;;;;;;;;;;5038814;28;20408;-51
2023/05/07 09:36:48;;;;;;;2.80;2.60;;;;;;;;;;5038195;28;20815;-51
2023/05/07 09:39:15;;;;;;;3.78;2.80;;;;;;;;;;5042288;28;20240;-52
2023/05/07 09:41:46;;;;;;;3.58;3.28;;;;;;;;;;5040351;28;20298;-50
2023/05/07 09:44:12;;;;;;;4.00;3.60;;;;;;;;;;5038710;28;20472;-53
2023/05/07 09:46:39;;;;;;;4.80;3.08;;;;;;;;;;5050813;28;20247;-52
2023/05/07 09:49:08;;;;;;;3.25;2.92;;;;;;;;;;5051383;28;20224;-53
2023/05/07 09:51:40;;;;;;;3.88;2.92;;;;;;;;;;5050414;28;20298;-51
2023/05/07 09:54:07;;;;;;;3.05;2.78;;;;;;;;;;5048148;28;20242;-52
2023/05/07 09:56:34;;;;;;;6.15;3.83;;;;;;;;;;5054052;28;20265;-52
2023/05/07 09:59:03;;;;;;;3.20;2.67;;;;;;;;;;5043803;28;20236;-51
2023/05/07 10:01:31;;;;;;;3.25;2.95;;;;;;;;;;5042317;28;20231;-52
2023/05/07 10:03:58;;;;;;;2.85;2.65;;;;;;;;;;5044426;28;20231;-51
2023/05/07 10:06:25;;;;;;;3.10;2.58;;;;;;;;;;5043913;28;20247;-51
2023/05/07 10:08:52;;;;;;;2.63;2.42;;;;;;;;;;5039450;28;20250;-51
2023/05/07 10:11:19;;;;;;;2.75;2.55;;;;;;;;;;5035659;28;20232;-52
2023/05/07 10:13:47;;;;;;;2.72;2.42;;;;;;;;;;5039488;28;20279;-52
2023/05/07 10:16:15;;;;;;;3.35;2.88;;;;;;;;;;5044038;28;20719;-52
2023/05/07 10:18:41;;;;;;;2.55;2.35;;;;;;;;;;5041564;28;20282;-51
2023/05/07 10:21:09;;;;;;;2.45;2.25;;;;;;;;;;5044518;28;20251;-51
2023/05/07 10:23:35;;;;;;;2.60;2.15;;;;;;;;;;5042006;28;20236;-51
2023/05/07 10:26:03;;;;;;;3.00;2.42;;;;;;;;;;5043341;28;20242;-51
2023/05/07 10:28:32;;;;;;;2.90;2.70;;;;;;;;;;5042757;28;20281;-51
2023/05/07 10:31:09;;;;;;;2.40;2.20;;;;;;;;;;5041354;28;20236;-51
2023/05/07 10:33:37;;;;;;;2.47;2.10;;;;;;;;;;5040930;28;20326;-52
2023/05/07 10:36:05;;;;;;;3.30;2.00;;;;;;;;;;5042911;28;20235;-51
2023/05/07 10:38:31;;;;;;;3.17;2.47;;;;;;;;;;5043306;28;20647;-52
2023/05/07 10:40:58;;;;;;;3.22;2.30;;;;;;;;;;5039531;28;20232;-51
2023/05/07 10:43:25;;;;;;;2.50;2.30;;;;;;;;;;5040665;28;20235;-52
2023/05/07 10:46:06;;;;;;;2.95;2.03;;;;;;;;;;5043070;28;20667;-51
2023/05/07 10:48:33;;;;;;;3.53;1.48;;;;;;;;;;5042765;28;20230;-51
2023/05/07 10:51:14;;;;;;;2.08;1.85;;;;;;;;;;5042362;28;20310;-52
2023/05/07 10:53:42;;;;;;;1.45;1.35;;;;;;;;;;5038409;28;20243;-50
2023/05/07 10:56:30;;;;;;;2.22;2.00;;;;;;;;;;5042207;28;20236;-51
2023/05/07 10:59:17;;;;;;;1.60;1.50;;;;;;;;;;5034205;28;20235;-51
2023/05/07 11:01:50;;;;;;;4.47;1.83;;;;;;;;;;5040207;28;20783;-51
2023/05/07 11:04:24;;;;;;;2.45;1.83;;;;;;;;;;5039184;28;20224;-51
2023/05/07 11:07:05;;;;;;;1.98;1.85;;;;;;;;;;5036915;28;20232;-53
2023/05/07 11:09:46;;;;;;;2.90;2.13;;;;;;;;;;5032017;28;20238;-51
2023/05/07 11:12:14;;;;;;;3.92;1.75;;;;;;;;;;5042003;28;20227;-51
2023/05/07 11:14:44;;;;;;;2.10;1.90;;;;;;;;;;5041917;28;20246;-51
2023/05/07 11:17:11;;;;;;;1.65;1.50;;;;;;;;;;5044637;28;20331;-51
2023/05/07 11:19:50;;;;;;;5.25;2.15;;;;;;;;;;5041337;28;20227;-51
2023/05/07 11:22:35;;;;;;;2.00;1.90;;;;;;;;;;5043620;28;20314;-51
2023/05/07 11:25:02;;;;;;;2.83;2.00;;;;;;;;;;5030626;28;20224;-51
2023/05/07 11:27:30;;;;;;;3.42;2.20;;;;;;;;;;5031366;28;20281;-52
2023/05/07 11:29:57;;;;;;;2.15;1.95;;;;;;;;;;5044348;28;20464;-51
2023/05/07 11:32:23;;;;;;;1.73;1.63;;;;;;;;;;5043508;28;20290;-51
2023/05/07 11:34:52;;;;;;;2.10;1.98;;;;;;;;;;5041628;28;20247;-51
2023/05/07 11:37:19;;;;;;;4.45;1.77;;;;;;;;;;5040684;28;20239;-51
2023/05/07 11:39:45;;;;;;;2.20;2.00;;;;;;;;;;5043441;28;20269;-50
2023/05/07 11:42:26;;;;;;;2.90;2.00;;;;;;;;;;5042282;28;20232;-50
2023/05/07 11:44:54;;;;;;;2.30;1.80;;;;;;;;;;5041631;28;20695;-52
2023/05/07 11:47:21;;;;;;;2.28;1.77;;;;;;;;;;5044128;28;20647;-51
2023/05/07 11:49:48;;;;;;;2.40;2.20;;;;;;;;;;5043843;28;20239;-51
2023/05/07 11:52:15;;;;;;;2.80;1.90;;;;;;;;;;5041264;28;20232;-51
2023/05/07 11:54:41;;;;;;;2.25;2.05;;;;;;;;;;5043519;28;20247;-53
2023/05/07 11:57:15;;;;;;;3.38;2.22;;;;;;;;;;5043549;28;20322;-51
2023/05/07 11:59:41;;;;;;;2.25;2.00;;;;;;;;;;5041750;28;20240;-50
2023/05/07 12:02:10;;;;;;;2.83;2.30;;;;;;;;;;5039755;28;20785;-51
2023/05/07 12:04:36;;;;;;;3.58;2.25;;;;;;;;;;5040162;28;20294;-52
2023/05/07 12:07:03;;;;;;;9.48;2.35;;;;;;;;;;5038518;28;20231;-52
2023/05/07 12:09:30;;;;;;;2.00;1.90;;;;;;;;;;5040817;28;20232;-52
2023/05/07 12:11:56;;;;;;;2.70;2.40;;;;;;;;;;5041619;28;20231;-51
2023/05/07 12:14:23;;;;;;;2.80;2.20;;;;;;;;;;5043146;28;20350;-53
2023/05/07 12:16:49;;;;;;;3.33;2.05;;;;;;;;;;5039214;28;20818;-49
2023/05/07 12:19:18;;;;;;;3.40;2.03;;;;;;;;;;5043755;28;20711;-51
2023/05/07 12:21:44;;;;;;;1.95;1.77;;;;;;;;;;5043482;28;20765;-51
2023/05/07 12:24:11;;;;;;;2.72;2.20;;;;;;;;;;5044645;28;20271;-51
2023/05/07 12:26:40;;;;;;;2.70;2.40;;;;;;;;;;5043503;28;20236;-51
2023/05/07 12:29:07;;;;;;;1.65;1.55;;;;;;;;;;5047618;28;20263;-52
2023/05/07 12:31:33;;;;;;;1.85;1.75;;;;;;;;;;5049764;28;20228;-51
2023/05/07 12:34:00;;;;;;;2.35;2.00;;;;;;;;;;5048414;28;20668;-55
2023/05/07 12:36:37;;;;;;;2.55;2.00;;;;;;;;;;5052825;28;20231;-52
2023/05/07 12:39:05;;;;;;;2.60;2.40;;;;;;;;;;5047439;28;20298;-52
2023/05/07 12:41:31;;;;;;;2.05;1.77;;;;;;;;;;5041747;28;20699;-56
2023/05/07 12:43:58;;;;;;;1.50;1.40;;;;;;;;;;5043396;28;20235;-53
2023/05/07 12:46:25;;;;;;;2.15;1.95;;;;;;;;;;5043195;28;20288;-51
2023/05/07 12:48:53;;;;;;;1.60;1.50;;;;;;;;;;5044210;28;20228;-51
2023/05/07 12:51:20;;;;;;;1.77;1.65;;;;;;;;;;5040585;28;20286;-52
2023/05/07 12:53:48;;;;;;;2.10;1.90;;;;;;;;;;5040869;28;20247;-50
2023/05/07 12:56:16;;;;;;;1.92;1.70;;;;;;;;;;5041710;28;20228;-51
2023/05/07 12:58:43;;;;;;;2.10;1.90;;;;;;;;;;5042574;28;20318;-50
2023/05/07 13:01:15;;;;;;;2.28;1.90;;;;;;;;;;5042674;28;20238;-51
2023/05/07 13:03:41;;;;;;;2.00;1.88;;;;;;;;;;5038074;28;20294;-51
2023/05/07 13:06:12;;;;;;;2.78;1.70;;;;;;;;;;5039653;28;20232;-52
2023/05/07 13:08:40;;;;;;;2.45;2.25;;;;;;;;;;5040162;28;20231;-53
2023/05/07 13:11:08;;;;;;;3.47;1.80;;;;;;;;;;5038653;28;20224;-51
2023/05/07 13:13:35;;;;;;;2.25;2.05;;;;;;;;;;5040467;28;20303;-52
2023/05/07 13:16:02;;;;;;;2.47;1.67;;;;;;;;;;5036056;28;20281;-51
2023/05/07 13:18:30;;;;;;;1.55;1.45;;;;;;;;;;5028646;28;20305;-52
2023/05/07 13:20:56;;;;;;;2.30;1.30;;;;;;;;;;5038756;28;20249;-50
2023/05/07 13:23:23;;;;;;;1.40;1.30;;;;;;;;;;5043107;28;20242;-50
2023/05/07 13:25:50;;;;;;;1.70;1.60;;;;;;;;;;5042754;28;20723;-52
2023/05/07 13:28:18;;;;;;;3.80;2.20;;;;;;;;;;5045118;28;20224;-51
2023/05/07 13:30:45;;;;;;;3.95;2.45;;;;;;;;;;5043696;28;20322;-52
2023/05/07 13:33:11;;;;;;;2.53;2.25;;;;;;;;;;5041635;28;20761;-52
2023/05/07 13:35:38;;;;;;;2.33;1.60;;;;;;;;;;5043702;28;20235;-52
2023/05/07 13:38:05;;;;;;;1.83;1.67;;;;;;;;;;5044592;28;20231;-52
2023/05/07 13:40:32;;;;;;;3.10;2.05;;;;;;;;;;5041815;28;20236;-52
2023/05/07 13:43:00;;;;;;;2.08;1.73;;;;;;;;;;5043840;28;21073;-51
2023/05/07 13:45:29;;;;;;;1.50;1.40;;;;;;;;;;5043743;28;20256;-51
2023/05/07 13:47:56;;;;;;;1.17;1.13;;;;;;;;;;5043546;28;20267;-51
2023/05/07 13:50:22;;;;;;;1.50;1.40;;;;;;;;;;5044543;28;20228;-51
2023/05/07 13:52:50;;;;;;;3.60;1.77;;;;;;;;;;5042597;28;20683;-51
2023/05/07 13:55:17;;;;;;;1.77;1.30;;;;;;;;;;5044532;28;20247;-53
2023/05/07 13:57:43;;;;;;;1.60;1.45;;;;;;;;;;5044632;28;20256;-51
2023/05/07 14:00:10;;;;;;;2.08;1.65;;;;;;;;;;5040158;28;20243;-51
2023/05/07 14:02:38;;;;;;;2.75;1.80;;;;;;;;;;5042025;28;20228;-52
2023/05/07 14:05:05;;;;;;;2.17;1.50;;;;;;;;;;5044040;28;20733;-51
2023/05/07 14:07:31;;;;;;;1.60;1.42;;;;;;;;;;5037232;28;20370;-53
2023/05/07 14:09:58;;;;;;;3.90;1.77;;;;;;;;;;5037894;28;20228;-53
2023/05/07 14:12:25;;;;;;;1.70;1.60;;;;;;;;;;5042640;28;20824;-52
2023/05/07 14:14:51;;;;;;;1.90;1.80;;;;;;;;;;5042556;28;20227;-50
2023/05/07 14:17:18;;;;;;;2.63;2.30;;;;;;;;;;5042076;28;20231;-50
2023/05/07 14:19:46;;;;;;;3.25;2.35;;;;;;;;;;5041820;28;20268;-50
2023/05/07 14:22:14;;;;;;;2.78;2.47;;;;;;;;;;5041484;28;20235;-50
2023/05/07 14:24:40;;;;;;;1.90;1.77;;;;;;;;;;5044749;28;20240;-50
2023/05/07 14:27:07;;;;;;;3.55;1.58;;;;;;;;;;5045747;28;20251;-51
2023/05/07 14:29:35;;;;;;;3.80;2.47;;;;;;;;;;5043511;28;20234;-50
2023/05/07 14:32:01;;;;;;;2.13;1.98;;;;;;;;;;5046056;28;20232;-52
2023/05/07 14:34:28;;;;;;;2.08;1.55;;;;;;;;;;5046243;28;20239;-52
2023/05/07 14:36:56;;;;;;;6.50;2.10;;;;;;;;;;5045783;28;20774;-51
2023/05/07 14:39:22;;;;;;;2.10;1.52;;;;;;;;;;5046452;28;20366;-51
2023/05/07 14:41:49;;;;;;;3.55;1.85;;;;;;;;;;5044054;28;20860;-52